.
WxDataArchive / Data Records for 2008-01-09
2008-01-08 January 2008 2008-01-10

Data Records for Wednesday, 09 January 2008

Time	Temp	Chill	HIndex	Humid	Dewpt	 Wind 	HiWind	WindDir	Rain 	Barom 
-----	----	-----	------	-----	-----	------	------	-------	-----	----- 
00:00	46.0	46.0	46.0	91	43.5	3	6	270	0.01	29.489 
00:05	45.5	45.5	45.5	92	43.3	3	8	248	0.00	29.498 
00:10	45.1	45.1	45.1	92	42.9	3	9	315	0.00	29.475 
00:15	44.5	42.5	44.5	92	42.3	4	10	270	0.00	29.501 
00:20	43.8	40.9	43.8	91	41.3	5	12	292	0.00	29.495 
00:25	42.9	39.9	42.9	91	40.5	5	13	270	0.00	29.502 
00:30	42.5	39.4	42.5	91	40.1	5	12	270	0.00	29.531 
00:35	42.1	38.9	42.1	91	39.7	5	11	270	0.00	29.539 
00:40	41.8	38.6	41.8	92	39.6	5	12	270	0.00	29.556 
00:45	41.2	36.6	41.2	91	38.8	7	15	270	0.00	29.577 
00:50	40.8	36.7	40.8	91	38.4	6	13	270	0.00	29.573 
00:55	40.6	38.0	40.6	91	38.2	4	9	270	0.00	29.568 
01:00	40.3	37.7	40.3	91	37.9	4	10	270	0.00	29.585 
01:05	40.2	37.5	40.2	91	37.8	4	9	270	0.00	29.603 
01:10	40.1	37.4	40.1	91	37.7	4	8	270	0.00	29.607 
01:15	39.9	37.2	39.9	91	37.5	4	6	270	0.00	29.607 
01:20	39.8	36.2	39.8	91	37.4	5	14	270	0.00	29.605 
01:25	39.6	36.0	39.6	90	36.9	5	11	270	0.00	29.617 
01:30	39.6	36.0	39.6	89	36.6	5	12	270	0.00	29.627 
01:35	39.5	35.9	39.5	88	36.2	5	13	270	0.00	29.636 
01:40	39.3	35.7	39.3	88	36.0	5	11	270	0.00	29.644 
01:45	39.3	35.7	39.3	88	36.0	5	10	270	0.00	29.652 
01:50	39.2	36.4	39.2	88	35.9	4	9	270	0.00	29.657 
01:55	39.2	35.5	39.2	88	35.9	5	12	270	0.00	29.665 
02:00	39.3	36.5	39.3	87	35.8	4	7	270	0.00	29.676 
02:05	39.3	36.5	39.3	86	35.5	4	9	270	0.00	29.681 
02:10	39.3	35.7	39.3	86	35.5	5	11	270	0.00	29.680 
02:15	39.3	36.5	39.3	86	35.5	4	8	270	0.00	29.686 
02:20	39.3	36.5	39.3	85	35.2	4	7	270	0.00	29.698 
02:25	39.3	36.5	39.3	86	35.5	4	10	270	0.00	29.702 
02:30	39.3	36.5	39.3	86	35.5	4	11	270	0.00	29.703 
02:35	39.2	36.4	39.2	86	35.4	4	7	270	0.00	29.705 
02:40	39.2	35.5	39.2	85	35.1	5	10	270	0.00	29.716 
02:45	39.2	39.2	39.2	86	35.4	3	8	270	0.00	29.729 
02:50	39.3	36.5	39.3	86	35.5	4	14	270	0.00	29.726 
02:55	39.2	39.2	39.2	86	35.4	3	7	270	0.00	29.732 
03:00	39.2	39.2	39.2	86	35.4	3	7	248	0.00	29.747 
03:05	39.3	36.5	39.3	86	35.5	4	7	270	0.00	29.751 
03:10	39.5	36.7	39.5	86	35.7	4	12	270	0.00	29.756 
03:15	39.5	39.5	39.5	86	35.7	3	8	270	0.00	29.763 
03:20	39.6	36.9	39.6	86	35.8	4	7	270	0.00	29.765 
03:25	39.8	37.1	39.8	87	36.3	4	10	270	0.00	29.777 
03:30	39.8	37.1	39.8	87	36.3	4	9	270	0.00	29.779 
03:35	39.8	37.1	39.8	88	36.5	4	12	270	0.00	29.781 
03:40	39.8	36.2	39.8	88	36.5	5	11	270	0.00	29.791 
03:45	39.8	36.2	39.8	87	36.3	5	9	270	0.00	29.795 
03:50	39.6	36.0	39.6	86	35.8	5	12	270	0.00	29.801 
03:55	39.8	36.2	39.8	83	35.1	5	12	270	0.00	29.807 
04:00	39.9	37.2	39.9	82	34.9	4	12	270	0.00	29.808 
04:05	39.9	37.2	39.9	82	34.9	4	7	270	0.00	29.811 
04:10	39.9	39.9	39.9	82	34.9	3	7	270	0.00	29.815 
04:15	39.9	37.2	39.9	82	34.9	4	7	270	0.00	29.820 
04:20	40.1	37.4	40.1	83	35.4	4	7	270	0.00	29.827 
04:25	40.1	40.1	40.1	83	35.4	3	10	270	0.00	29.830 
04:30	40.1	37.4	40.1	84	35.7	4	6	270	0.00	29.838 
04:35	40.1	40.1	40.1	84	35.7	3	7	270	0.00	29.840 
04:40	40.1	40.1	40.1	84	35.7	3	7	270	0.00	29.838 
04:45	40.1	40.1	40.1	84	35.7	3	10	270	0.00	29.843 
04:50	40.2	37.5	40.2	83	35.5	4	9	270	0.00	29.850 
04:55	40.2	37.5	40.2	83	35.5	4	9	270	0.00	29.858 
05:00	40.3	37.7	40.3	84	35.9	4	6	270	0.00	29.860 
05:05	40.3	40.3	40.3	83	35.6	3	7	270	0.00	29.870 
05:10	40.2	40.2	40.2	83	35.5	3	6	270	0.00	29.873 
05:15	40.2	40.2	40.2	83	35.5	3	7	270	0.00	29.876 
05:20	40.2	40.2	40.2	83	35.5	2	5	270	0.00	29.877 
05:25	40.3	40.3	40.3	83	35.6	3	10	248	0.00	29.884 
05:30	40.3	40.3	40.3	84	35.9	2	4	248	0.00	29.885 
05:35	40.3	40.3	40.3	83	35.6	3	7	270	0.00	29.888 
05:40	40.3	40.3	40.3	83	35.6	3	12	270	0.00	29.890 
05:45	40.2	40.2	40.2	82	35.2	3	10	270	0.00	29.893 
05:50	40.2	40.2	40.2	81	34.8	3	6	270	0.00	29.898 
05:55	40.2	40.2	40.2	81	34.8	3	9	270	0.00	29.904 
06:00	40.2	37.5	40.2	80	34.5	4	13	270	0.00	29.907 
06:05	40.2	37.5	40.2	80	34.5	4	8	270	0.00	29.911 
06:10	40.2	40.2	40.2	81	34.8	3	7	270	0.00	29.912 
06:15	40.1	37.4	40.1	81	34.7	4	7	270	0.00	29.911 
06:20	40.1	37.4	40.1	81	34.7	4	10	270	0.00	29.916 
06:25	39.9	39.9	39.9	82	34.9	2	7	248	0.00	29.921 
06:30	39.9	39.9	39.9	82	34.9	2	6	270	0.00	29.923 
06:35	39.8	39.8	39.8	83	35.1	2	6	248	0.00	29.925 
06:40	39.6	36.9	39.6	83	34.9	4	9	270	0.00	29.926 
06:45	39.5	39.5	39.5	83	34.8	2	5	248	0.00	29.932 
06:50	39.2	36.4	39.2	83	34.5	4	10	248	0.00	29.937 
06:55	39.1	39.1	39.1	83	34.4	2	5	248	0.00	29.941 
07:00	38.9	36.0	38.9	83	34.2	4	9	248	0.00	29.947 
07:05	38.9	36.0	38.9	82	33.9	4	10	270	0.00	29.953 
07:10	38.9	38.9	38.9	82	33.9	3	6	248	0.00	29.957 
07:15	38.8	38.8	38.8	82	33.8	3	9	248	0.00	29.961 
07:20	38.8	38.8	38.8	81	33.5	3	12	270	0.00	29.966 
07:25	38.6	35.7	38.6	81	33.3	4	11	270	0.00	29.967 
07:30	38.6	38.6	38.6	81	33.3	3	9	248	0.00	29.969 
07:35	38.6	38.6	38.6	80	33.0	3	9	270	0.00	29.970 
07:40	38.6	38.6	38.6	79	32.7	3	9	248	0.00	29.971 
07:45	38.5	35.6	38.5	78	32.2	4	10	270	0.00	29.972 
07:50	38.3	38.3	38.3	77	31.7	3	7	270	0.00	29.980 
07:55	38.2	38.2	38.2	77	31.6	3	10	248	0.00	29.985 
08:00	37.9	37.9	37.9	77	31.3	3	10	270	0.00	29.988 
08:05	37.8	37.8	37.8	76	30.9	3	10	270	0.00	29.994 
08:10	37.8	34.8	37.8	76	30.9	4	11	270	0.00	29.997 
08:15	37.8	37.8	37.8	75	30.6	3	9	270	0.00	29.999 
08:20	37.6	37.6	37.6	74	30.1	3	6	270	0.00	30.002 
08:25	37.6	37.6	37.6	75	30.4	3	7	270	0.00	30.003 
08:30	37.6	37.6	37.6	76	30.7	2	5	248	0.00	30.007 
08:35	37.5	37.5	37.5	77	31.0	2	12	248	0.00	30.013 
08:40	37.5	37.5	37.5	77	31.0	3	7	270	0.00	30.017 
08:45	37.5	37.5	37.5	77	31.0	3	9	270	0.00	30.019 
08:50	37.3	37.3	37.3	76	30.4	3	12	248	0.00	30.023 
08:55	37.3	37.3	37.3	76	30.4	3	9	270	0.00	30.029 
09:00	37.2	33.2	37.2	75	30.0	5	13	270	0.00	30.029 
09:05	37.2	37.2	37.2	75	30.0	3	11	270	0.00	30.032 
09:10	37.3	37.3	37.3	76	30.4	3	7	270	0.00	30.034 
09:15	37.5	37.5	37.5	76	30.6	3	10	270	0.00	30.034 
09:20	37.5	34.4	37.5	76	30.6	4	10	270	0.00	30.034 
09:25	37.5	34.4	37.5	76	30.6	4	11	270	0.00	30.038 
09:30	37.3	34.2	37.3	75	30.1	4	10	270	0.00	30.046 
09:35	37.3	37.3	37.3	76	30.4	2	9	270	0.00	30.050 
09:40	37.3	37.3	37.3	76	30.4	3	7	270	0.00	30.052 
09:45	37.3	37.3	37.3	76	30.4	2	4	270	0.00	30.058 
09:50	37.2	37.2	37.2	76	30.3	3	9	292	0.00	30.062 
09:55	37.0	37.0	37.0	76	30.2	3	5	270	0.00	30.067 
10:00	36.9	36.9	36.9	77	30.4	2	5	270	0.00	30.071 
10:05	36.9	36.9	36.9	78	30.7	2	9	270	0.00	30.077 
10:10	36.9	36.9	36.9	78	30.7	3	6	270	0.00	30.078 
10:15	36.8	36.8	36.8	78	30.6	2	7	270	0.00	30.081 
10:20	36.9	36.9	36.9	79	31.0	1	4	248	0.00	30.081 
10:25	36.8	36.8	36.8	78	30.6	3	9	270	0.00	30.084 
10:30	36.8	36.8	36.8	78	30.6	2	6	270	0.00	30.086 
10:35	36.8	33.6	36.8	75	29.6	4	10	248	0.00	30.085 
10:40	36.8	33.6	36.8	75	29.6	4	9	270	0.00	30.085 
10:45	36.9	33.7	36.9	73	29.1	4	10	248	0.00	30.084 
10:50	37.0	37.0	37.0	75	29.8	2	5	292	0.00	30.085 
10:55	37.0	37.0	37.0	74	29.5	1	3	270	0.00	30.085 
11:00	37.0	37.0	37.0	74	29.5	2	4	270	0.00	30.083 
11:05	37.2	37.2	37.2	76	30.3	1	6	270	0.00	30.091 
11:10	37.0	37.0	37.0	75	29.8	3	7	248	0.00	30.091 
11:15	37.0	37.0	37.0	75	29.8	3	8	248	0.00	30.091 
11:20	37.0	37.0	37.0	75	29.8	3	7	248	0.00	30.092 
11:25	37.5	37.5	37.5	75	30.3	2	6	248	0.00	30.092 
11:30	37.6	34.5	37.6	73	29.7	4	8	248	0.00	30.093 
11:35	37.5	34.4	37.5	72	29.3	4	10	270	0.00	30.091 
11:40	37.5	37.5	37.5	73	29.6	2	7	248	0.00	30.090 
11:45	37.5	37.5	37.5	73	29.6	2	5	248	0.00	30.090 
11:50	37.3	37.3	37.3	73	29.5	3	9	248	0.00	30.090 
11:55	37.3	37.3	37.3	73	29.5	3	11	248	0.00	30.092 
12:00	37.3	37.3	37.3	74	29.8	2	6	270	0.00	30.094 
12:05	37.0	33.9	37.0	73	29.2	4	10	248	0.00	30.098 
12:10	36.9	36.9	36.9	74	29.4	3	10	270	0.00	30.100 
12:15	36.9	36.9	36.9	74	29.4	2	6	270	0.00	30.099 
12:20	37.0	37.0	37.0	76	30.2	0	2	315	0.00	30.097 
12:25	37.2	37.2	37.2	77	30.7	1	5	248	0.00	30.100 
12:30	37.0	37.0	37.0	75	29.8	3	8	270	0.00	30.102 
12:35	37.2	37.2	37.2	75	30.0	3	10	248	0.00	30.106 
12:40	37.5	37.5	37.5	75	30.3	2	7	248	0.00	30.100 
12:45	37.9	37.9	37.9	75	30.7	2	6	248	0.00	30.107 
12:50	38.0	35.0	38.0	72	29.8	4	14	248	0.00	30.107 
12:55	38.6	38.6	38.6	74	31.0	3	7	248	0.00	30.105 
13:00	38.9	36.0	38.9	70	30.0	4	11	248	0.00	30.099 
13:05	39.1	39.1	39.1	71	30.5	3	6	248	0.00	30.104 
13:10	39.6	39.6	39.6	72	31.3	3	10	270	0.00	30.107 
13:15	39.6	39.6	39.6	70	30.6	3	11	270	0.00	30.105 
13:20	38.9	38.9	38.9	72	30.7	2	7	270	0.00	30.103 
13:25	38.3	38.3	38.3	70	29.4	3	9	270	0.00	30.100 
13:30	38.3	38.3	38.3	73	30.4	2	4	270	0.00	30.098 
13:35	38.6	38.6	38.6	73	30.7	2	5	270	0.00	30.097 
13:40	39.1	39.1	39.1	72	30.8	1	5	270	0.00	30.098 
13:45	39.2	39.2	39.2	71	30.6	2	7	248	0.00	30.096 
13:50	39.1	39.1	39.1	70	30.2	3	9	248	0.00	30.098 
13:55	39.1	39.1	39.1	71	30.5	2	6	248	0.00	30.098 
14:00	39.5	39.5	39.5	72	31.2	2	5	270	0.00	30.100 
14:05	39.5	39.5	39.5	69	30.2	3	7	248	0.00	30.102 
14:10	39.3	39.3	39.3	70	30.3	2	6	248	0.00	30.099 
14:15	39.3	39.3	39.3	70	30.3	2	5	248	0.00	30.097 
14:20	39.5	39.5	39.5	69	30.2	2	6	270	0.00	30.096 
14:25	39.6	39.6	39.6	71	31.0	2	5	270	0.00	30.097 
14:30	39.6	39.6	39.6	69	30.3	2	6	270	0.00	30.103 
14:35	39.6	39.6	39.6	70	30.6	2	5	270	0.00	30.105 
14:40	39.6	39.6	39.6	71	31.0	2	7	248	0.00	30.105 
14:45	39.8	39.8	39.8	69	30.5	3	8	270	0.00	30.105 
14:50	39.6	36.9	39.6	69	30.3	4	7	248	0.00	30.100 
14:55	39.6	39.6	39.6	70	30.6	2	7	270	0.00	30.097 
15:00	39.8	39.8	39.8	68	30.1	3	6	248	0.00	30.096 
15:05	40.1	40.1	40.1	69	30.8	2	5	248	0.00	30.100 
15:10	40.3	40.3	40.3	69	31.0	1	3	270	0.00	30.107 
15:15	40.5	40.5	40.5	69	31.1	1	5	270	0.00	30.107 
15:20	40.5	40.5	40.5	69	31.1	1	3	270	0.00	30.107 
15:25	40.6	40.6	40.6	68	30.9	2	6	248	0.00	30.106 
15:30	40.6	40.6	40.6	70	31.6	1	4	270	0.00	30.109 
15:35	40.6	40.6	40.6	69	31.2	2	6	248	0.00	30.109 
15:40	40.6	40.6	40.6	68	30.9	1	4	248	0.00	30.109 
15:45	40.3	40.3	40.3	69	31.0	1	4	270	0.00	30.110 
15:50	40.1	40.1	40.1	70	31.1	0	2	292	0.00	30.110 
15:55	40.2	40.2	40.2	71	31.6	0	2	292	0.00	30.110 
16:00	40.2	40.2	40.2	71	31.6	0	2	292	0.00	30.112 
16:05	40.1	40.1	40.1	70	31.1	0	2	248	0.00	30.113 
16:10	40.1	40.1	40.1	70	31.1	1	5	248	0.00	30.113 
16:15	40.2	40.2	40.2	70	31.2	2	5	248	0.00	30.118 
16:20	40.1	40.1	40.1	71	31.5	1	5	248	0.00	30.116 
16:25	40.1	40.1	40.1	72	31.8	0	2	248	0.00	30.113 
16:30	40.1	40.1	40.1	71	31.5	1	2	248	0.00	30.120 
16:35	39.9	39.9	39.9	71	31.3	1	2	248	0.00	30.121 
16:40	39.6	39.6	39.6	71	31.0	2	6	248	0.00	30.122 
16:45	39.3	39.3	39.3	72	31.0	0	3	248	0.00	30.123 
16:50	39.1	39.1	39.1	72	30.8	1	3	248	0.00	30.126 
16:55	38.9	38.9	38.9	73	31.0	0	2	270	0.00	30.126 
17:00	38.8	38.8	38.8	72	30.6	1	4	248	0.00	30.126 
17:05	38.6	38.6	38.6	73	30.7	1	2	248	0.00	30.124 
17:10	38.5	38.5	38.5	73	30.6	0	4	248	0.00	30.123 
17:15	38.2	38.2	38.2	74	30.7	0	1	248	0.00	30.122 
17:20	37.9	37.9	37.9	75	30.7	0	1	248	0.00	30.126 
17:25	37.6	37.6	37.6	76	30.7	0	1	248	0.00	30.128 
17:30	37.5	37.5	37.5	77	31.0	0	1	248	0.00	30.127 
17:35	37.2	37.2	37.2	77	30.7	0	0	---	0.00	30.129 
17:40	36.9	36.9	36.9	77	30.4	0	0	---	0.00	30.129 
17:45	36.6	36.6	36.6	78	30.4	0	0	---	0.00	30.126 
17:50	36.2	36.2	36.2	79	30.3	0	0	---	0.00	30.128 
17:55	35.8	35.8	35.8	80	30.2	0	0	---	0.00	30.129 
18:00	35.6	35.6	35.6	81	30.4	0	1	248	0.00	30.131 
18:05	35.6	35.6	35.6	81	30.4	0	0	---	0.00	30.131 
18:10	35.5	35.5	35.5	81	30.3	0	0	---	0.00	30.131 
18:15	35.3	35.3	35.3	82	30.4	0	0	---	0.00	30.135 
18:20	35.2	35.2	35.2	82	30.3	0	1	248	0.00	30.141 
18:25	35.0	35.0	35.0	83	30.4	0	0	---	0.00	30.140 
18:30	34.9	34.9	34.9	83	30.3	0	0	---	0.00	30.132 
18:35	34.7	34.7	34.7	83	30.1	0	0	---	0.00	30.131 
18:40	34.4	34.4	34.4	83	29.8	0	0	---	0.00	30.134 
18:45	34.1	34.1	34.1	84	29.8	0	0	---	0.00	30.133 
18:50	33.8	33.8	33.8	84	29.5	0	0	---	0.00	30.133 
18:55	33.5	33.5	33.5	85	29.5	0	0	---	0.00	30.134 
19:00	33.2	33.2	33.2	85	29.2	0	0	---	0.00	30.132 
19:05	32.9	32.9	32.9	86	29.2	0	0	---	0.00	30.134 
19:10	32.7	32.7	32.7	86	29.0	0	0	---	0.00	30.133 
19:15	32.5	32.5	32.5	86	28.8	0	0	---	0.00	30.137 
19:20	32.2	32.2	32.2	87	28.8	0	0	---	0.00	30.134 
19:25	32.1	32.1	32.1	87	28.7	0	0	---	0.00	30.133 
19:30	31.9	31.9	31.9	87	28.5	0	0	---	0.00	30.134 
19:35	31.8	31.8	31.8	88	28.7	0	0	---	0.00	30.133 
19:40	31.5	31.5	31.5	88	28.4	0	0	---	0.00	30.134 
19:45	31.3	31.3	31.3	88	28.2	0	0	---	0.00	30.134 
19:50	31.2	31.2	31.2	89	28.3	0	0	---	0.00	30.135 
19:55	31.2	31.2	31.2	89	28.3	0	0	---	0.00	30.136 
20:00	31.0	31.0	31.0	89	28.1	0	0	---	0.00	30.134 
20:05	30.9	30.9	30.9	90	28.3	0	0	---	0.00	30.137 
20:10	30.9	30.9	30.9	91	28.6	0	0	---	0.00	30.135 
20:15	30.9	30.9	30.9	91	28.6	0	0	---	0.00	30.135 
20:20	30.9	30.9	30.9	91	28.6	0	0	---	0.00	30.135 
20:25	30.9	30.9	30.9	91	28.6	0	0	---	0.00	30.133 
20:30	30.7	30.7	30.7	91	28.4	0	0	---	0.00	30.129 
20:35	30.7	30.7	30.7	91	28.4	0	0	---	0.00	30.127 
20:40	30.7	30.7	30.7	92	28.7	0	0	---	0.00	30.124 
20:45	30.6	30.6	30.6	92	28.6	0	0	---	0.00	30.125 
20:50	30.7	30.7	30.7	92	28.7	0	0	---	0.00	30.124 
20:55	30.7	30.7	30.7	92	28.7	0	0	---	0.00	30.122 
21:00	30.9	30.9	30.9	92	28.9	0	0	---	0.00	30.123 
21:05	30.9	30.9	30.9	92	28.9	0	0	---	0.00	30.124 
21:10	30.9	30.9	30.9	93	29.1	0	0	---	0.00	30.121 
21:15	30.9	30.9	30.9	93	29.1	0	0	---	0.00	30.121 
21:20	31.0	31.0	31.0	93	29.2	0	0	---	0.00	30.125 
21:25	31.0	31.0	31.0	93	29.2	0	0	---	0.00	30.123 
21:30	31.0	31.0	31.0	93	29.2	0	0	---	0.00	30.125 
21:35	31.0	31.0	31.0	93	29.2	0	0	---	0.00	30.125 
21:40	30.9	30.9	30.9	93	29.1	0	0	---	0.00	30.123 
21:45	30.9	30.9	30.9	93	29.1	0	0	---	0.00	30.121 
21:50	30.9	30.9	30.9	93	29.1	0	0	---	0.00	30.123 
21:55	30.9	30.9	30.9	93	29.1	0	0	---	0.00	30.130 
22:00	30.9	30.9	30.9	93	29.1	0	0	---	0.00	30.130 
22:05	30.9	30.9	30.9	93	29.1	0	0	---	0.00	30.131 
22:10	30.9	30.9	30.9	93	29.1	0	0	---	0.00	30.131 
22:15	30.9	30.9	30.9	93	29.1	0	0	---	0.00	30.126 
22:20	30.9	30.9	30.9	94	29.4	0	0	---	0.00	30.126 
22:25	30.9	30.9	30.9	94	29.4	0	0	---	0.00	30.125 
22:30	30.9	30.9	30.9	94	29.4	0	0	---	0.00	30.126 
22:35	30.9	30.9	30.9	94	29.4	0	0	---	0.00	30.121 
22:40	30.9	30.9	30.9	94	29.4	0	0	---	0.00	30.121 
22:45	30.9	30.9	30.9	94	29.4	0	0	---	0.00	30.122 
22:50	31.0	31.0	31.0	94	29.5	0	0	---	0.00	30.123 
22:55	31.0	31.0	31.0	94	29.5	0	0	---	0.00	30.121 
23:00	30.9	30.9	30.9	94	29.4	0	0	---	0.00	30.123 
23:05	30.9	30.9	30.9	94	29.4	0	0	---	0.00	30.123 
23:10	30.9	30.9	30.9	94	29.4	0	0	---	0.00	30.127 
23:15	30.9	30.9	30.9	94	29.4	0	0	---	0.00	30.124 
23:20	30.7	30.7	30.7	94	29.2	0	0	---	0.00	30.123 
23:25	30.7	30.7	30.7	94	29.2	0	0	---	0.00	30.122 
23:30	30.7	30.7	30.7	94	29.2	0	0	---	0.00	30.124 
23:35	30.7	30.7	30.7	94	29.2	0	0	---	0.00	30.125 
23:40	30.6	30.6	30.6	94	29.1	0	0	---	0.00	30.122 
23:45	30.6	30.6	30.6	94	29.1	0	0	---	0.00	30.122 
23:50	30.4	30.4	30.4	94	28.9	0	0	---	0.00	30.124 
23:55	30.3	30.3	30.3	94	28.8	0	0	---	0.00	30.123 

CoCoRaHS
IN-AL-39
A2 Web Hosting
Creative Commons License
GoDaddy
Look for:

loaded 2017-12-11 14:36:45 • last modified 2010-11-18 10:43:29
Privacy PolicyDisclaimer
• wx.awcolley.com is powered by PmWiki v.2002016 •
• all content (unless otherwise noted) © 2017 A W Colley